Time;durP1;ratioP1;P1;durP2;ratioP2;P2;SDS_P1;SDS_P2;PMS_P1;PMS_P2;Temp;Humidity;BMP_temperature;BMP_pressure;BME280_temperature;BME280_humidity;BME280_pressure;Samples;Min_cycle;Max_cycle;Signal;HPM_P1;HPM_P2
2021/03/05 00:00:14;;;;;;;14.53;6.80;;;5.10;79.80;;;;;;5052219;28;20447;-78
2021/03/05 00:02:40;;;;;;;16.77;7.43;;;5.10;80.20;;;;;;5035573;28;20021;-80
2021/03/05 00:05:07;;;;;;;20.43;8.23;;;5.10;80.60;;;;;;5052973;28;20028;-78
2021/03/05 00:07:33;;;;;;;20.27;8.00;;;5.10;80.50;;;;;;5052749;28;20140;-79
2021/03/05 00:09:59;;;;;;;17.70;8.37;;;5.10;80.90;;;;;;5051903;28;20028;-78
2021/03/05 00:12:25;;;;;;;19.90;8.97;;;5.10;81.10;;;;;;5052118;28;20108;-79
2021/03/05 00:14:51;;;;;;;20.00;9.37;;;5.00;81.30;;;;;;5035270;28;20036;-78
2021/03/05 00:17:17;;;;;;;18.37;8.43;;;5.00;81.20;;;;;;5051807;28;20356;-78
2021/03/05 00:19:43;;;;;;;18.20;8.20;;;5.00;81.20;;;;;;5051900;28;20075;-81
2021/03/05 00:22:09;;;;;;;18.13;9.00;;;5.00;81.10;;;;;;5052018;28;20017;-81
2021/03/05 00:24:35;;;;;;;20.40;9.67;;;5.00;82.00;;;;;;5053175;28;20058;-81
2021/03/05 00:27:01;;;;;;;18.83;9.77;;;4.90;81.30;;;;;;5051826;28;20056;-78
2021/03/05 00:29:28;;;;;;;21.13;9.43;;;5.00;81.50;;;;;;5035322;28;20037;-79
2021/03/05 00:31:54;;;;;;;16.93;8.37;;;4.90;81.30;;;;;;5052972;28;20033;-79
2021/03/05 00:34:20;;;;;;;20.80;9.10;;;4.90;81.20;;;;;;5052938;28;20037;-79
2021/03/05 00:36:46;;;;;;;19.50;9.50;;;4.90;81.20;;;;;;5051487;28;20039;-78
2021/03/05 00:39:11;;;;;;;20.53;9.00;;;4.90;81.50;;;;;;5053139;28;20036;-79
2021/03/05 00:41:37;;;;;;;16.97;8.37;;;4.90;81.30;;;;;;5051789;28;20021;-80
2021/03/05 00:44:04;;;;;;;16.50;8.73;;;4.90;81.50;;;;;;5051723;28;20079;-79
2021/03/05 00:46:30;;;;;;;18.50;9.37;;;4.80;81.20;;;;;;5052928;28;20021;-79
2021/03/05 00:48:56;;;;;;;18.63;8.93;;;4.80;81.30;;;;;;5052801;28;20079;-79
2021/03/05 00:51:22;;;;;;;18.17;8.80;;;4.80;81.90;;;;;;5051717;28;20493;-79
2021/03/05 00:53:47;;;;;;;15.60;9.13;;;4.90;81.60;;;;;;5051436;28;20051;-79
2021/03/05 00:56:13;;;;;;;15.70;8.27;;;4.90;81.50;;;;;;5051601;28;20028;-80
2021/03/05 00:58:38;;;;;;;16.97;8.60;;;4.90;81.20;;;;;;5052849;28;20123;-80
2021/03/05 01:01:04;;;;;;;16.23;8.97;;;4.90;81.30;;;;;;5034927;28;20389;-79
2021/03/05 01:03:30;;;;;;;17.83;8.37;;;4.80;81.00;;;;;;5051372;28;20025;-79
2021/03/05 01:05:56;;;;;;;19.10;8.83;;;4.80;80.80;;;;;;5052623;28;20104;-78
2021/03/05 01:08:22;;;;;;;19.07;9.87;;;4.80;81.80;;;;;;5051337;28;20053;-80
2021/03/05 01:10:47;;;;;;;14.97;7.37;;;4.80;80.70;;;;;;5051427;28;20115;-80
2021/03/05 01:13:13;;;;;;;14.73;7.90;;;4.60;81.10;;;;;;5034833;28;20021;-79
2021/03/05 01:15:39;;;;;;;14.63;7.83;;;4.60;80.50;;;;;;5035577;28;20124;-79
2021/03/05 01:18:04;;;;;;;14.27;7.20;;;4.50;80.20;;;;;;5038776;28;20025;-79
2021/03/05 01:20:30;;;;;;;14.50;7.80;;;4.40;80.20;;;;;;5055428;28;20025;-79
2021/03/05 01:22:57;;;;;;;14.17;7.77;;;4.40;80.20;;;;;;5055377;28;20033;-79
2021/03/05 01:25:25;;;;;;;17.37;8.60;;;4.30;80.40;;;;;;5038851;28;20487;-79
2021/03/05 01:27:51;;;;;;;17.63;9.07;;;4.20;80.60;;;;;;5056811;28;20025;-79
2021/03/05 01:30:17;;;;;;;15.70;8.07;;;4.10;80.60;;;;;;5056454;28;20032;-79
2021/03/05 01:32:44;;;;;;;16.13;7.47;;;4.10;80.80;;;;;;5056415;28;20059;-79
2021/03/05 01:35:22;;;;;;;15.87;8.87;;;4.00;81.20;;;;;;5055391;28;20025;-79
2021/03/05 01:37:48;;;;;;;17.00;7.83;;;4.00;81.30;;;;;;5054905;28;20021;-79
2021/03/05 01:40:37;;;;;;;14.70;6.97;;;3.90;81.60;;;;;;5054968;28;20086;-80
2021/03/05 01:43:06;;;;;;;15.60;6.57;;;3.80;81.60;;;;;;5054935;28;20067;-80
2021/03/05 01:45:32;;;;;;;14.40;7.33;;;3.80;81.80;;;;;;5055027;28;20104;-79
2021/03/05 01:48:13;;;;;;;14.93;7.50;;;3.70;81.70;;;;;;5054881;28;20449;-79
2021/03/05 01:50:50;;;;;;;15.67;8.37;;;3.70;82.20;;;;;;5055960;28;20049;-79
2021/03/05 01:53:16;;;;;;;14.00;7.80;;;3.60;82.20;;;;;;5054700;28;20049;-79
2021/03/05 01:55:42;;;;;;;15.07;8.17;;;3.50;82.40;;;;;;5037771;28;20025;-79
2021/03/05 01:58:08;;;;;;;14.43;7.57;;;3.50;82.90;;;;;;5054547;28;20033;-79
2021/03/05 02:00:50;;;;;;;18.70;7.87;;;3.40;82.90;;;;;;5037971;28;20027;-79
2021/03/05 02:03:16;;;;;;;17.00;7.77;;;3.40;83.20;;;;;;5055012;28;20419;-79
2021/03/05 02:05:42;;;;;;;18.27;8.13;;;3.30;83.10;;;;;;5055707;28;20029;-79
2021/03/05 02:08:09;;;;;;;16.03;8.10;;;3.30;83.50;;;;;;5055428;28;20057;-79
2021/03/05 02:10:34;;;;;;;17.27;8.13;;;3.20;83.90;;;;;;5037747;28;20025;-75
2021/03/05 02:13:00;;;;;;;18.97;8.77;;;3.20;83.70;;;;;;5037628;28;20097;-74
2021/03/05 02:15:26;;;;;;;17.73;8.27;;;3.20;84.00;;;;;;5054576;28;20391;-75
2021/03/05 02:18:04;;;;;;;15.47;8.37;;;3.10;84.20;;;;;;5055476;28;20113;-76
2021/03/05 02:20:43;;;;;;;15.83;8.47;;;3.10;84.50;;;;;;5055615;28;20448;-75
2021/03/05 02:23:27;;;;;;;17.63;8.57;;;3.00;84.30;;;;;;5055460;28;20029;-75
2021/03/05 02:26:08;;;;;;;;;;;3.00;83.90;;;;;;5054407;28;20120;-75
2021/03/05 02:29:11;;;;;;;18.97;8.07;;;2.90;84.20;;;;;;5055248;28;19959;-75
2021/03/05 02:31:48;;;;;;;17.23;8.23;;;2.90;84.00;;;;;;5055167;28;20086;-75
2021/03/05 02:34:24;;;;;;;15.13;8.00;;;2.80;83.90;;;;;;5053727;28;20115;-75
2021/03/05 02:36:52;;;;;;;15.83;7.67;;;2.80;83.80;;;;;;5053770;28;20175;-75
2021/03/05 02:39:33;;;;;;;18.53;8.13;;;2.70;84.50;;;;;;5053867;28;20079;-75
2021/03/05 02:42:02;;;;;;;16.97;7.97;;;2.70;84.70;;;;;;5053773;28;20108;-74
2021/03/05 02:44:32;;;;;;;18.83;8.67;;;2.70;85.10;;;;;;5053625;28;20388;-75
2021/03/05 02:47:06;;;;;;;19.83;8.53;;;2.70;84.90;;;;;;5053654;28;20115;-75
2021/03/05 02:49:35;;;;;;;16.55;8.48;;;2.60;85.10;;;;;;5037068;28;20044;-74
2021/03/05 02:52:12;;;;;;;19.17;8.40;;;2.60;85.70;;;;;;5053519;28;20075;-74
2021/03/05 02:54:40;;;;;;;17.60;8.70;;;2.50;85.70;;;;;;5053508;28;20392;-75
2021/03/05 02:57:09;;;;;;;21.20;9.50;;;2.50;85.90;;;;;;5036788;28;20024;-74
2021/03/05 02:59:37;;;;;;;16.63;8.37;;;2.50;86.00;;;;;;5053546;28;20091;-74
2021/03/05 03:02:03;;;;;;;20.40;9.33;;;2.40;86.00;;;;;;5053408;28;20049;-75
2021/03/05 03:04:30;;;;;;;19.73;9.37;;;2.40;86.10;;;;;;5036726;28;20029;-75
2021/03/05 03:06:57;;;;;;;21.00;9.43;;;2.30;85.80;;;;;;5053497;28;20029;-75
2021/03/05 03:09:24;;;;;;;20.63;8.63;;;2.30;86.00;;;;;;5053020;28;20056;-74
2021/03/05 03:11:49;;;;;;;18.30;8.47;;;2.30;86.70;;;;;;5053380;28;20082;-74
2021/03/05 03:14:16;;;;;;;18.00;8.50;;;2.20;86.60;;;;;;5053037;28;20024;-75
2021/03/05 03:16:43;;;;;;;20.63;8.50;;;2.20;86.10;;;;;;5052992;28;20040;-75
2021/03/05 03:19:15;;;;;;;14.80;7.97;;;2.10;86.30;;;;;;5036555;28;20029;-75
2021/03/05 03:21:42;;;;;;;19.13;8.40;;;2.10;86.30;;;;;;5052915;28;20085;-74
2021/03/05 03:24:08;;;;;;;21.03;8.97;;;2.10;86.60;;;;;;5052832;28;20155;-75
2021/03/05 03:26:38;;;;;;;18.20;9.20;;;2.00;86.40;;;;;;5036244;28;20112;-75
2021/03/05 03:29:05;;;;;;;18.83;8.53;;;2.00;86.20;;;;;;5036252;28;20025;-75
2021/03/05 03:31:31;;;;;;;19.00;8.03;;;2.00;86.60;;;;;;5036279;28;20384;-75
2021/03/05 03:33:59;;;;;;;16.33;8.07;;;1.90;86.80;;;;;;5052600;28;20131;-75
2021/03/05 03:36:27;;;;;;;17.47;9.27;;;1.90;87.20;;;;;;5052648;28;20021;-75
2021/03/05 03:38:53;;;;;;;16.57;8.13;;;1.90;87.30;;;;;;5035224;28;20040;-74
2021/03/05 03:41:19;;;;;;;16.40;7.70;;;1.90;87.00;;;;;;5052694;28;20017;-75
2021/03/05 03:43:44;;;;;;;16.77;7.30;;;1.80;86.90;;;;;;5052737;28;20409;-75
2021/03/05 03:46:10;;;;;;;18.00;8.10;;;1.70;86.80;;;;;;5035797;28;20025;-75
2021/03/05 03:48:47;;;;;;;17.23;8.17;;;1.80;87.40;;;;;;5052845;28;20033;-75
2021/03/05 03:51:16;;;;;;;17.67;7.53;;;1.80;87.10;;;;;;5052312;28;20025;-75
2021/03/05 03:53:45;;;;;;;14.83;7.17;;;1.70;87.00;;;;;;5052349;28;20122;-75
2021/03/05 03:56:12;;;;;;;15.43;7.27;;;1.70;86.90;;;;;;5052329;28;20029;-75
2021/03/05 03:58:39;;;;;;;12.87;5.90;;;1.70;87.00;;;;;;5052132;28;20472;-75
2021/03/05 04:01:11;;;;;;;16.03;6.97;;;1.70;86.70;;;;;;5052608;28;20460;-75
2021/03/05 04:03:39;;;;;;;14.90;6.17;;;1.70;86.70;;;;;;5035919;28;20070;-75
2021/03/05 04:06:09;;;;;;;16.17;6.77;;;1.70;86.50;;;;;;5053373;28;20096;-75
2021/03/05 04:08:37;;;;;;;16.53;6.33;;;1.60;86.50;;;;;;5051897;28;20076;-75
2021/03/05 04:11:06;;;;;;;11.63;5.00;;;1.60;86.10;;;;;;5053469;28;20033;-75
2021/03/05 04:13:32;;;;;;;13.37;5.20;;;1.60;86.00;;;;;;5035794;28;20062;-75
2021/03/05 04:15:58;;;;;;;11.77;5.87;;;1.60;86.00;;;;;;5052027;28;20108;-74
2021/03/05 04:18:31;;;;;;;16.00;5.63;;;1.50;85.80;;;;;;5035478;28;20159;-75
2021/03/05 04:21:00;;;;;;;13.73;5.63;;;1.50;85.90;;;;;;5053441;28;20021;-75
2021/03/05 04:23:26;;;;;;;16.83;6.30;;;1.50;85.80;;;;;;5053219;28;20025;-75
2021/03/05 04:25:51;;;;;;;11.37;5.70;;;1.50;86.40;;;;;;5035275;28;20492;-75
2021/03/05 04:28:17;;;;;;;13.97;6.17;;;1.50;85.70;;;;;;5035365;28;20029;-75
2021/03/05 04:30:42;;;;;;;12.87;4.60;;;1.40;86.20;;;;;;5052092;28;20029;-74
2021/03/05 04:33:08;;;;;;;14.63;5.50;;;1.40;85.50;;;;;;5051762;28;20041;-74
2021/03/05 04:35:33;;;;;;;13.20;5.50;;;1.40;85.50;;;;;;5052086;28;20043;-75
2021/03/05 04:37:59;;;;;;;19.23;6.47;;;1.40;85.50;;;;;;5051831;28;20507;-75
2021/03/05 04:40:25;;;;;;;13.03;5.43;;;1.40;86.00;;;;;;5035147;28;20029;-75
2021/03/05 04:42:50;;;;;;;13.53;6.17;;;1.40;85.80;;;;;;5035061;28;20048;-75
2021/03/05 04:45:16;;;;;;;14.40;5.87;;;1.30;86.20;;;;;;5053018;28;20033;-75
2021/03/05 04:47:42;;;;;;;16.23;6.23;;;1.30;86.10;;;;;;5051844;28;20045;-76
2021/03/05 04:50:08;;;;;;;16.40;7.13;;;1.30;86.20;;;;;;5054427;28;20039;-75
2021/03/05 04:52:33;;;;;;;15.17;6.67;;;1.30;86.20;;;;;;5039147;28;20556;-75
2021/03/05 04:54:59;;;;;;;14.87;5.27;;;1.20;85.90;;;;;;5055767;28;20032;-75
2021/03/05 04:57:24;;;;;;;13.07;6.17;;;1.20;85.80;;;;;;5055770;28;20167;-74
2021/03/05 04:59:50;;;;;;;12.73;5.07;;;1.20;85.80;;;;;;5055694;28;20162;-75
2021/03/05 05:02:15;;;;;;;15.00;5.40;;;1.20;85.80;;;;;;5057645;28;20100;-75
2021/03/05 05:04:41;;;;;;;15.17;6.20;;;1.20;86.40;;;;;;5054467;28;20033;-75
2021/03/05 05:07:07;;;;;;;13.90;6.30;;;1.10;86.10;;;;;;5053759;28;20037;-75
2021/03/05 05:09:32;;;;;;;12.97;5.47;;;1.10;86.20;;;;;;5054583;28;20566;-75
2021/03/05 05:11:58;;;;;;;13.07;4.70;;;1.10;85.90;;;;;;5037779;28;20057;-75
2021/03/05 05:14:23;;;;;;;14.87;5.50;;;1.00;85.90;;;;;;5055445;28;20062;-75
2021/03/05 05:16:49;;;;;;;12.00;5.40;;;1.00;86.20;;;;;;5055240;28;20469;-74
2021/03/05 05:19:15;;;;;;;15.03;5.33;;;1.00;86.10;;;;;;5038686;28;20031;-75
2021/03/05 05:21:40;;;;;;;14.90;5.67;;;1.00;86.00;;;;;;5055164;28;20025;-74
2021/03/05 05:24:07;;;;;;;10.43;4.90;;;1.00;85.80;;;;;;5055184;28;20029;-75
2021/03/05 05:26:32;;;;;;;12.00;5.13;;;0.90;85.90;;;;;;5055381;28;20032;-75
2021/03/05 05:28:58;;;;;;;12.13;5.20;;;0.90;85.80;;;;;;5038613;28;20033;-75
2021/03/05 05:31:23;;;;;;;10.70;4.87;;;0.90;85.80;;;;;;5038417;28;20116;-76
2021/03/05 05:33:49;;;;;;;10.70;4.30;;;0.80;85.80;;;;;;5054901;28;20488;-75
2021/03/05 05:36:15;;;;;;;12.23;4.87;;;0.80;85.60;;;;;;5038403;28;20051;-75
2021/03/05 05:38:40;;;;;;;12.43;4.77;;;0.80;85.60;;;;;;5054816;28;20036;-75
2021/03/05 05:41:06;;;;;;;11.40;4.03;;;0.80;85.60;;;;;;5054961;28;20040;-75
2021/03/05 05:43:32;;;;;;;10.83;4.03;;;0.80;85.60;;;;;;5056252;28;20206;-75
2021/03/05 05:46:06;;;;;;;12.07;4.60;;;0.70;85.40;;;;;;5054898;28;20029;-75
2021/03/05 05:48:36;;;;;;;;;;;0.70;85.50;;;;;;5055163;28;20033;-75
2021/03/05 05:51:10;;;;;;;11.87;4.03;;;0.70;85.60;;;;;;5054669;28;20004;-75
2021/03/05 05:53:39;;;;;;;14.57;3.67;;;0.70;85.50;;;;;;5054798;28;20059;-75
2021/03/05 05:56:06;;;;;;;15.83;4.60;;;0.70;85.30;;;;;;5054630;28;20350;-76
2021/03/05 05:58:32;;;;;;;9.20;4.23;;;0.70;85.40;;;;;;5055642;28;20043;-76
2021/03/05 06:00:58;;;;;;;12.97;4.37;;;0.60;85.40;;;;;;5054336;28;20106;-75
2021/03/05 06:03:27;;;;;;;12.53;4.37;;;0.60;85.20;;;;;;5037576;28;20025;-75
2021/03/05 06:05:57;;;;;;;11.60;4.60;;;0.60;85.20;;;;;;5037747;28;20017;-75
2021/03/05 06:08:23;;;;;;;10.07;3.73;;;0.60;85.20;;;;;;5053696;28;20053;-75
2021/03/05 06:10:52;;;;;;;12.17;4.10;;;0.50;85.20;;;;;;5054093;28;20029;-75
2021/03/05 06:13:18;;;;;;;11.43;4.07;;;0.50;85.10;;;;;;5052607;28;20021;-76
2021/03/05 06:15:43;;;;;;;12.87;3.80;;;0.50;85.20;;;;;;5037360;28;20031;-75
2021/03/05 06:18:29;;;;;;;8.30;3.63;;;0.50;85.20;;;;;;5036857;28;20025;-80
2021/03/05 06:20:54;;;;;;;8.63;4.17;;;0.50;85.20;;;;;;5054172;28;20507;-81
2021/03/05 06:23:20;;;;;;;12.97;5.93;;;0.50;85.30;;;;;;5055379;28;20029;-80
2021/03/05 06:25:45;;;;;;;15.30;4.30;;;0.40;85.20;;;;;;5054008;28;20017;-80
2021/03/05 06:28:17;;;;;;;13.03;4.37;;;0.50;85.30;;;;;;5054071;28;20052;-79
2021/03/05 06:30:44;;;;;;;14.03;4.13;;;0.50;85.10;;;;;;5053613;28;20039;-79
2021/03/05 06:33:24;;;;;;;9.83;3.90;;;0.50;85.10;;;;;;5054020;28;20078;-79
2021/03/05 06:35:50;;;;;;;11.53;4.27;;;0.50;85.00;;;;;;5064934;28;20286;-79
2021/03/05 06:38:42;;;;;;;11.60;4.07;;;0.40;84.90;;;;;;5061689;28;20288;-79
2021/03/05 06:41:21;;;;;;;11.33;4.03;;;0.50;85.00;;;;;;5062742;28;20447;-79
2021/03/05 06:43:51;;;;;;;10.27;4.10;;;0.60;84.90;;;;;;5065277;28;20301;-79
2021/03/05 06:46:38;;;;;;;10.50;3.47;;;0.60;84.80;;;;;;5064046;28;20028;-78
2021/03/05 06:49:10;;;;;;;9.27;3.17;;;0.60;84.60;;;;;;5064924;28;20025;-78
2021/03/05 06:51:36;;;;;;;11.97;3.30;;;0.60;84.40;;;;;;5064138;28;20083;-80
2021/03/05 06:54:28;;;;;;;12.73;3.00;;;0.60;84.30;;;;;;5063592;28;20064;-80
2021/03/05 06:56:54;;;;;;;6.87;2.77;;;0.70;84.10;;;;;;5063736;28;20020;-80
2021/03/05 06:59:21;;;;;;;9.23;3.33;;;0.70;83.70;;;;;;5062826;28;20452;-80
2021/03/05 07:01:59;;;;;;;8.67;3.00;;;0.80;83.50;;;;;;5060913;28;20039;-77
2021/03/05 07:04:27;;;;;;;7.37;2.47;;;0.80;83.90;;;;;;5063582;28;20027;-77
2021/03/05 07:07:01;;;;;;;11.07;2.80;;;0.80;83.10;;;;;;5064762;28;20022;-77
2021/03/05 07:09:55;;;;;;;9.05;3.13;;;0.90;82.70;;;;;;5052667;28;20049;-77
2021/03/05 07:12:25;;;;;;;11.20;2.90;;;0.90;82.50;;;;;;5068260;28;20511;-76
2021/03/05 07:15:02;;;;;;;8.30;3.63;;;0.90;82.50;;;;;;5051680;28;20017;-75
2021/03/05 07:17:29;;;;;;;8.70;3.20;;;1.00;82.30;;;;;;5052645;28;20029;-75
2021/03/05 07:19:55;;;;;;;11.23;2.10;;;1.00;82.00;;;;;;5036536;28;20032;-75
2021/03/05 07:22:26;;;;;;;7.77;2.23;;;1.10;82.10;;;;;;5036069;28;20060;-74
2021/03/05 07:24:54;;;;;;;7.90;2.30;;;1.10;82.00;;;;;;5052603;28;20021;-74
2021/03/05 07:27:36;;;;;;;5.50;1.80;;;1.10;82.00;;;;;;5052599;28;20037;-75
2021/03/05 07:30:03;;;;;;;7.70;2.60;;;1.20;82.00;;;;;;5052877;28;20541;-75
2021/03/05 07:32:38;;;;;;;10.63;2.10;;;1.20;81.80;;;;;;5052612;28;20033;-76
2021/03/05 07:35:06;;;;;;;7.87;2.47;;;1.20;81.90;;;;;;5052748;28;20059;-75
2021/03/05 07:38:05;;;;;;;9.60;2.60;;;1.30;81.80;;;;;;5052129;28;20117;-75
2021/03/05 07:40:33;;;;;;;6.87;2.97;;;1.30;81.60;;;;;;5063150;28;20033;-75
2021/03/05 07:43:00;;;;;;;7.97;2.40;;;1.40;81.20;;;;;;5069423;28;20028;-75
2021/03/05 07:45:25;;;;;;;7.47;2.30;;;1.40;80.80;;;;;;5060725;28;20017;-75
2021/03/05 07:47:54;;;;;;;10.63;2.50;;;1.50;80.90;;;;;;5063417;28;20541;-77
2021/03/05 07:50:23;;;;;;;7.00;2.13;;;1.50;80.70;;;;;;5046763;28;20392;-79
2021/03/05 07:52:49;;;;;;;9.17;2.40;;;1.50;80.50;;;;;;5060131;28;20032;-79
2021/03/05 07:55:15;;;;;;;7.80;2.03;;;1.50;80.20;;;;;;5058805;28;20029;-80
2021/03/05 07:57:46;;;;;;;12.23;2.63;;;1.60;80.10;;;;;;5066414;28;20032;-79
2021/03/05 08:00:16;;;;;;;7.87;2.17;;;1.60;80.20;;;;;;5073051;28;20025;-79
2021/03/05 08:02:56;;;;;;;8.83;2.90;;;1.70;80.20;;;;;;5063620;28;20032;-79
2021/03/05 08:05:34;;;;;;;8.27;2.60;;;1.80;80.30;;;;;;5035438;28;20036;-79
2021/03/05 08:08:23;;;;;;;9.63;3.07;;;1.80;80.30;;;;;;5055081;28;20084;-80
2021/03/05 08:11:00;;;;;;;7.60;2.57;;;1.80;80.30;;;;;;5051903;28;20029;-79
2021/03/05 08:13:51;;;;;;;9.40;2.13;;;1.90;80.30;;;;;;5071808;28;20032;-79
2021/03/05 08:16:26;;;;;;;8.10;2.33;;;1.90;80.20;;;;;;5072015;28;20111;-79
2021/03/05 08:19:14;;;;;;;7.73;2.17;;;2.00;80.10;;;;;;5064637;28;20488;-79
2021/03/05 08:21:51;;;;;;;11.33;2.60;;;2.10;79.90;;;;;;5051656;28;20452;-80
2021/03/05 08:24:39;;;;;;;7.30;1.70;;;2.20;79.90;;;;;;5052674;28;20068;-79
2021/03/05 08:27:35;;;;;;;8.37;1.77;;;2.20;79.60;;;;;;5052964;28;20021;-79
2021/03/05 08:30:03;;;;;;;8.73;1.90;;;2.30;79.40;;;;;;5051728;28;20021;-79
2021/03/05 08:32:33;;;;;;;5.40;1.43;;;2.30;78.40;;;;;;5053027;28;20461;-79
2021/03/05 08:35:38;;;;;;;6.17;1.60;;;2.30;77.30;;;;;;5052982;28;20021;-79
2021/03/05 08:38:08;;;;;;;5.67;1.40;;;2.40;76.40;;;;;;5033874;28;20028;-78
2021/03/05 08:40:35;;;;;;;6.90;1.73;;;2.50;75.30;;;;;;5051034;28;20029;-80
2021/03/05 08:43:09;;;;;;;9.90;1.17;;;2.50;74.60;;;;;;5052006;28;20563;-80
2021/03/05 08:45:54;;;;;;;6.87;1.13;;;2.60;73.90;;;;;;5053090;28;20029;-81
2021/03/05 08:48:35;;;;;;;5.30;1.00;;;2.70;73.00;;;;;;5051068;28;20388;-80
2021/03/05 08:51:06;;;;;;;9.33;1.20;;;2.80;73.20;;;;;;5051621;28;20029;-80
2021/03/05 08:53:53;;;;;;;7.37;0.83;;;2.80;73.10;;;;;;5051556;28;20376;-80
2021/03/05 08:56:27;;;;;;;6.50;0.60;;;3.00;71.40;;;;;;5063977;28;20476;-81
2021/03/05 08:59:09;;;;;;;5.85;0.90;;;3.10;71.40;;;;;;5050335;28;20422;-80
2021/03/05 09:01:39;;;;;;;3.13;0.80;;;3.00;71.40;;;;;;5052884;28;20049;-81
2021/03/05 09:04:20;;;;;;;6.33;1.07;;;3.20;70.30;;;;;;5035003;28;20034;-80
2021/03/05 09:06:51;;;;;;;9.57;1.13;;;3.20;69.50;;;;;;5052518;28;20028;-81
2021/03/05 09:09:19;;;;;;;6.37;0.77;;;3.30;69.60;;;;;;5052565;28;20061;-81
2021/03/05 09:11:45;;;;;;;5.27;0.90;;;3.40;67.30;;;;;;5052673;28;20029;-79
2021/03/05 09:14:22;;;;;;;3.80;0.90;;;3.50;67.50;;;;;;5034536;28;20029;-78
2021/03/05 09:17:03;;;;;;;5.67;0.70;;;3.50;66.90;;;;;;5064489;28;20028;-80
2021/03/05 09:19:33;;;;;;;5.27;0.80;;;3.60;64.90;;;;;;5072685;28;20051;-78
2021/03/05 09:22:20;;;;;;;3.03;0.70;;;3.60;64.00;;;;;;5054612;28;20484;-78
2021/03/05 09:25:00;;;;;;;6.30;0.93;;;3.70;64.60;;;;;;5071409;28;20028;-78
2021/03/05 09:27:26;;;;;;;4.37;0.70;;;3.80;63.60;;;;;;5071318;28;20025;-78
2021/03/05 09:29:53;;;;;;;4.83;0.80;;;3.80;62.20;;;;;;5072893;28;20036;-78
2021/03/05 09:32:18;;;;;;;4.07;0.80;;;3.90;61.90;;;;;;5054690;28;20058;-79
2021/03/05 09:34:52;;;;;;;3.70;0.70;;;4.00;62.00;;;;;;5054400;28;20024;-79
2021/03/05 09:37:19;;;;;;;2.45;0.60;;;4.00;62.40;;;;;;5074177;28;20016;-79
2021/03/05 09:39:47;;;;;;;4.80;0.70;;;4.10;62.70;;;;;;5076218;28;20099;-78
2021/03/05 09:42:12;;;;;;;5.17;1.13;;;4.10;60.90;;;;;;5074857;28;20104;-79
2021/03/05 09:44:46;;;;;;;7.40;1.20;;;4.20;61.70;;;;;;5076099;28;20106;-79
2021/03/05 09:47:12;;;;;;;4.53;0.77;;;4.20;61.30;;;;;;5076211;28;20143;-80
2021/03/05 09:49:38;;;;;;;3.83;0.63;;;4.30;61.20;;;;;;5074826;28;20127;-80
2021/03/05 09:52:05;;;;;;;3.83;1.00;;;4.40;62.10;;;;;;5074705;28;20040;-80
2021/03/05 09:54:37;;;;;;;5.90;0.70;;;4.50;62.40;;;;;;5074843;28;20035;-79
2021/03/05 09:57:04;;;;;;;3.80;0.70;;;4.50;62.90;;;;;;5074532;28;20063;-79
2021/03/05 09:59:47;;;;;;;4.07;0.63;;;4.70;62.30;;;;;;5074782;28;20016;-80
2021/03/05 10:02:20;;;;;;;4.00;0.57;;;4.80;60.90;;;;;;5057985;28;20036;-79
2021/03/05 10:04:47;;;;;;;5.63;0.67;;;5.00;60.20;;;;;;5075922;28;20028;-81
2021/03/05 10:07:13;;;;;;;5.13;0.70;;;5.30;59.60;;;;;;5075880;28;20029;-79
2021/03/05 10:09:38;;;;;;;5.27;0.70;;;5.50;58.40;;;;;;5075565;28;20381;-80
2021/03/05 10:12:04;;;;;;;2.97;0.50;;;5.90;57.60;;;;;;5075989;28;20697;-80
2021/03/05 10:14:36;;;;;;;2.80;0.50;;;6.30;56.70;;;;;;5075708;28;20037;-79
2021/03/05 10:17:13;;;;;;;4.57;0.73;;;6.80;56.70;;;;;;5074483;28;20115;-80
2021/03/05 10:19:41;;;;;;;3.63;0.60;;;7.50;56.80;;;;;;5075198;28;20534;-80
2021/03/05 10:22:07;;;;;;;3.90;0.47;;;8.10;56.40;;;;;;5075609;28;20039;-80
2021/03/05 10:24:33;;;;;;;3.73;0.50;;;8.90;53.80;;;;;;5075416;28;20476;-80
2021/03/05 10:27:10;;;;;;;1.30;0.30;;;9.70;52.60;;;;;;5073973;28;20037;-81
2021/03/05 10:29:46;;;;;;;2.72;0.40;;;10.40;52.10;;;;;;5074236;28;20017;-80
2021/03/05 10:32:33;;;;;;;3.65;0.45;;;11.20;50.90;;;;;;5075279;28;20108;-80
2021/03/05 10:35:05;;;;;;;2.78;0.30;;;12.00;47.70;;;;;;5075378;28;20067;-79
2021/03/05 10:37:31;;;;;;;1.73;0.40;;;12.70;46.80;;;;;;5073838;28;20400;-82
2021/03/05 10:39:58;;;;;;;3.10;0.43;;;13.30;44.40;;;;;;5073867;28;20475;-80
2021/03/05 10:42:25;;;;;;;2.25;0.38;;;13.80;43.10;;;;;;5073708;28;20035;-81
2021/03/05 10:44:51;;;;;;;1.08;0.28;;;14.40;42.30;;;;;;5073560;28;20029;-82
2021/03/05 10:47:22;;;;;;;2.17;0.30;;;15.00;39.00;;;;;;5057032;28;20116;-82
2021/03/05 10:49:48;;;;;;;4.30;0.30;;;15.50;36.50;;;;;;5057084;28;20040;-80
2021/03/05 10:52:16;;;;;;;1.83;0.38;;;15.80;36.40;;;;;;5073598;28;20059;-81
2021/03/05 10:54:43;;;;;;;1.98;0.30;;;16.00;35.00;;;;;;5074664;28;20031;-80
2021/03/05 10:57:19;;;;;;;1.55;0.30;;;16.40;34.10;;;;;;5074643;28;20029;-82
2021/03/05 10:59:48;;;;;;;2.42;0.40;;;16.80;34.60;;;;;;5074851;28;20040;-82
2021/03/05 11:02:15;;;;;;;2.20;0.40;;;17.20;34.10;;;;;;5054966;28;20032;-81
2021/03/05 11:04:41;;;;;;;2.95;0.30;;;17.60;35.10;;;;;;5054498;28;20029;-82
2021/03/05 11:07:07;;;;;;;1.30;0.20;;;17.90;35.50;;;;;;5054943;28;20039;-80
2021/03/05 11:09:33;;;;;;;1.65;0.22;;;18.10;35.60;;;;;;5064699;28;20143;-81
2021/03/05 11:11:59;;;;;;;0.82;0.20;;;18.00;35.20;;;;;;5062848;28;20028;-82
2021/03/05 11:14:27;;;;;;;1.70;0.30;;;17.90;34.50;;;;;;5063417;28;20400;-80
2021/03/05 11:16:53;;;;;;;1.63;0.20;;;17.60;33.90;;;;;;5060602;28;20017;-80
2021/03/05 11:19:20;;;;;;;1.27;0.20;;;17.40;33.30;;;;;;5065583;28;20036;-81
2021/03/05 11:21:46;;;;;;;4.35;0.47;;;17.30;33.00;;;;;;5062949;28;20024;-81
2021/03/05 11:24:12;;;;;;;1.65;0.40;;;17.40;32.90;;;;;;5064885;28;20024;-79
2021/03/05 11:26:38;;;;;;;2.08;0.25;;;17.30;32.60;;;;;;5058232;28;20087;-79
2021/03/05 11:29:04;;;;;;;2.42;0.30;;;17.40;32.00;;;;;;5054349;28;20100;-82
2021/03/05 11:31:30;;;;;;;3.42;0.22;;;17.40;31.70;;;;;;5054019;28;20073;-81
2021/03/05 11:33:56;;;;;;;1.52;0.35;;;17.30;31.00;;;;;;5036299;28;20040;-81
2021/03/05 11:36:22;;;;;;;1.33;0.20;;;17.30;31.30;;;;;;5036305;28;20040;-79
2021/03/05 11:38:50;;;;;;;1.13;0.20;;;17.20;31.90;;;;;;5053916;28;20473;-79
2021/03/05 11:41:18;;;;;;;1.35;0.30;;;17.30;31.40;;;;;;5053872;28;20075;-81
2021/03/05 11:43:51;;;;;;;1.77;0.20;;;17.40;31.30;;;;;;5063568;28;20021;-81
2021/03/05 11:46:19;;;;;;;0.70;0.20;;;17.40;29.80;;;;;;5053788;28;20473;-80
2021/03/05 11:48:45;;;;;;;3.50;0.20;;;17.30;29.90;;;;;;5058961;28;20036;-80
2021/03/05 11:51:11;;;;;;;1.05;0.20;;;17.40;30.50;;;;;;5068000;28;20036;-80
2021/03/05 11:53:37;;;;;;;0.65;0.20;;;17.50;30.40;;;;;;5070929;28;20036;-81
2021/03/05 11:56:04;;;;;;;3.45;0.40;;;17.60;30.40;;;;;;5072906;28;20079;-81
2021/03/05 11:58:30;;;;;;;3.28;0.35;;;17.70;30.20;;;;;;5073878;28;20016;-81
2021/03/05 12:00:56;;;;;;;1.60;0.30;;;17.80;29.70;;;;;;5072367;28;20033;-81
2021/03/05 12:03:21;;;;;;;2.60;0.20;;;17.80;29.40;;;;;;5039256;28;20028;-81
2021/03/05 12:05:47;;;;;;;2.20;0.20;;;17.70;29.10;;;;;;5072619;28;20033;-81
2021/03/05 12:08:12;;;;;;;1.90;0.30;;;17.60;28.80;;;;;;5055583;28;20091;-80
2021/03/05 12:10:38;;;;;;;1.38;0.30;;;17.60;28.90;;;;;;5055798;28;20029;-80
2021/03/05 12:13:05;;;;;;;1.08;0.30;;;17.60;28.70;;;;;;5073518;28;20454;-80
2021/03/05 12:15:31;;;;;;;1.15;0.30;;;17.70;28.80;;;;;;5072727;28;20341;-78
2021/03/05 12:17:57;;;;;;;1.15;0.20;;;17.90;28.70;;;;;;5073971;28;20032;-79
2021/03/05 12:20:22;;;;;;;3.53;0.30;;;18.20;28.80;;;;;;5055723;28;20162;-78
2021/03/05 12:22:48;;;;;;;2.15;0.25;;;18.30;28.80;;;;;;5073699;28;20032;-79
2021/03/05 12:25:14;;;;;;;1.55;0.20;;;18.60;29.00;;;;;;5072313;28;20027;-79
2021/03/05 12:27:40;;;;;;;1.10;0.28;;;18.90;29.30;;;;;;5057639;28;20060;-80
2021/03/05 12:30:06;;;;;;;2.13;0.22;;;19.10;28.30;;;;;;5068391;28;20054;-80
2021/03/05 12:32:32;;;;;;;0.73;0.20;;;19.30;28.10;;;;;;5051777;28;20028;-81
2021/03/05 12:34:57;;;;;;;2.67;0.20;;;19.30;27.90;;;;;;5051633;28;20438;-81
2021/03/05 12:37:23;;;;;;;2.22;0.85;;;19.20;27.80;;;;;;5056770;28;20025;-81
2021/03/05 12:39:49;;;;;;;1.73;0.30;;;19.20;27.60;;;;;;5035248;28;20167;-80
2021/03/05 12:42:14;;;;;;;1.80;0.28;;;19.10;27.90;;;;;;5035525;28;20029;-80
2021/03/05 12:44:41;;;;;;;1.50;0.20;;;19.10;27.50;;;;;;5053189;28;20040;-82
2021/03/05 12:47:07;;;;;;;2.25;0.20;;;19.10;27.40;;;;;;5051447;28;20163;-82
2021/03/05 12:49:32;;;;;;;1.15;0.20;;;19.20;27.70;;;;;;5053085;28;20131;-82
2021/03/05 12:51:58;;;;;;;1.92;0.20;;;19.30;27.50;;;;;;5051594;28;20039;-82
2021/03/05 12:54:24;;;;;;;3.53;0.32;;;19.40;27.70;;;;;;5053035;28;20045;-82
2021/03/05 12:56:49;;;;;;;1.15;0.20;;;19.50;27.50;;;;;;5051837;28;20380;-82
2021/03/05 12:59:15;;;;;;;3.53;0.93;;;19.50;27.30;;;;;;5051885;28;20040;-83
2021/03/05 13:01:40;;;;;;;2.92;0.28;;;19.60;27.10;;;;;;5058812;28;20452;-82